Time;durP1;ratioP1;P1;durP2;ratioP2;P2;SDS_P1;SDS_P2;PMS_P1;PMS_P2;Temp;Humidity;BMP_temperature;BMP_pressure;BME280_temperature;BME280_humidity;BME280_pressure;Samples;Min_cycle;Max_cycle;Signal;HPM_P1;HPM_P2
2023/06/12 00:00:52;;;;;;;5.57;2.17;;;18.30;99.90;;;;;;5034605;28;20077;-28
2023/06/12 00:03:20;;;;;;;5.07;1.75;;;18.30;99.90;;;;;;5034655;28;20447;-28
2023/06/12 00:05:46;;;;;;;4.05;1.80;;;18.20;99.90;;;;;;5034581;28;20500;-28
2023/06/12 00:08:20;;;;;;;8.63;2.00;;;18.20;99.90;;;;;;5035064;28;20042;-27
2023/06/12 00:10:47;;;;;;;6.38;1.77;;;18.10;99.90;;;;;;5034123;28;20425;-28
2023/06/12 00:13:14;;;;;;;4.57;1.90;;;18.10;99.90;;;;;;5033498;28;20091;-27
2023/06/12 00:15:39;;;;;;;4.88;2.22;;;18.00;99.90;;;;;;5034667;28;20102;-27
2023/06/12 00:18:05;;;;;;;3.15;1.88;;;18.00;99.90;;;;;;5034925;28;20487;-28
2023/06/12 00:20:32;;;;;;;5.13;2.05;;;17.90;99.90;;;;;;5033809;28;20042;-27
2023/06/12 00:22:58;;;;;;;4.82;2.10;;;17.90;99.90;;;;;;5034473;28;20139;-27
2023/06/12 00:25:25;;;;;;;3.03;1.80;;;17.80;99.90;;;;;;5033826;28;20207;-28
2023/06/12 00:27:51;;;;;;;5.68;2.45;;;17.70;99.90;;;;;;5034457;28;20045;-27
2023/06/12 00:30:16;;;;;;;4.65;1.95;;;17.70;99.90;;;;;;5033786;28;20382;-28
2023/06/12 00:32:42;;;;;;;4.57;1.67;;;17.70;99.90;;;;;;5034580;28;20388;-27
2023/06/12 00:35:08;;;;;;;7.40;1.90;;;17.60;99.90;;;;;;5034127;28;20072;-28
2023/06/12 00:37:34;;;;;;;7.03;2.60;;;17.60;99.90;;;;;;5033995;28;20485;-27
2023/06/12 00:40:00;;;;;;;8.18;1.90;;;17.50;1.00;;;;;;5033341;28;20052;-27
2023/06/12 00:42:45;;;;;;;5.53;2.30;;;17.40;1.00;;;;;;5032700;28;20049;-27
2023/06/12 00:45:16;;;;;;;4.53;2.13;;;17.40;1.00;;;;;;5032623;28;20081;-28
2023/06/12 00:47:45;;;;;;;6.57;1.90;;;17.30;1.00;;;;;;5033545;28;20049;-28
2023/06/12 00:50:12;;;;;;;7.47;2.58;;;17.30;1.00;;;;;;5033106;28;20099;-28
2023/06/12 00:52:44;;;;;;;9.82;2.38;;;17.20;77.30;;;;;;5033781;28;20080;-27
2023/06/12 00:55:10;;;;;;;3.17;1.92;;;17.10;91.60;;;;;;5033878;28;20057;-27
2023/06/12 00:57:38;;;;;;;5.25;2.03;;;17.10;99.90;;;;;;5032564;28;20124;-28
2023/06/12 01:00:07;;;;;;;6.35;1.77;;;17.00;99.90;;;;;;5033635;28;20045;-28
2023/06/12 01:02:39;;;;;;;3.17;1.63;;;17.00;99.90;;;;;;5033742;28;20089;-27
2023/06/12 01:05:12;;;;;;;3.75;2.20;;;16.90;99.90;;;;;;5032211;28;20397;-28
2023/06/12 01:07:41;;;;;;;5.20;2.10;;;16.90;99.90;;;;;;5033662;28;20053;-28
2023/06/12 01:10:13;;;;;;;6.63;2.10;;;16.80;99.90;;;;;;5033796;28;20477;-27
2023/06/12 01:12:39;;;;;;;7.57;2.42;;;16.70;1.00;;;;;;5033621;28;20049;-28
2023/06/12 01:15:06;;;;;;;5.38;2.10;;;16.60;99.90;;;;;;5033530;28;20128;-27
2023/06/12 01:17:31;;;;;;;5.03;2.00;;;16.60;1.00;;;;;;5033501;28;20049;-28
2023/06/12 01:19:57;;;;;;;5.55;2.58;;;16.50;1.00;;;;;;5032267;28;20046;-28
2023/06/12 01:22:26;;;;;;;4.10;2.30;;;16.40;99.90;;;;;;5032213;28;20053;-27
2023/06/12 01:25:18;;;;;;;5.28;2.40;;;16.30;99.90;;;;;;5033420;28;20079;-27
2023/06/12 01:28:15;;;;;;;4.85;2.47;;;16.30;99.90;;;;;;5033711;28;20129;-27
2023/06/12 01:31:06;;;;;;;4.43;2.33;;;16.20;1.00;;;;;;5033965;28;20128;-28
2023/06/12 01:33:37;;;;;;;7.05;3.47;;;16.10;99.90;;;;;;5033509;28;20136;-27
2023/06/12 01:36:08;;;;;;;3.35;1.75;;;16.10;65.90;;;;;;5033939;28;20049;-27
2023/06/12 01:38:35;;;;;;;5.13;2.83;;;16.00;99.90;;;;;;5033348;28;20050;-27
2023/06/12 01:41:05;;;;;;;5.68;2.15;;;16.00;99.90;;;;;;5033762;28;20128;-27
2023/06/12 01:43:30;;;;;;;4.35;2.47;;;16.00;99.90;;;;;;5032054;28;20439;-28
2023/06/12 01:45:56;;;;;;;4.68;2.20;;;16.00;99.90;;;;;;5033275;28;20045;-28
2023/06/12 01:48:22;;;;;;;8.13;2.35;;;15.90;99.90;;;;;;5032030;28;20049;-28
2023/06/12 01:50:48;;;;;;;6.10;2.40;;;15.90;1.00;;;;;;5032939;28;20037;-27
2023/06/12 01:53:15;;;;;;;4.03;1.83;;;15.80;1.00;;;;;;5033220;28;20054;-28
2023/06/12 01:55:41;;;;;;;5.53;2.28;;;15.80;1.00;;;;;;5033195;28;20045;-27
2023/06/12 01:58:08;;;;;;;3.35;1.92;;;15.80;29.60;;;;;;5033158;28;20053;-28
2023/06/12 02:00:35;;;;;;;4.05;2.38;;;15.70;41.80;;;;;;5032444;28;20049;-28
2023/06/12 02:03:01;;;;;;;7.70;2.30;;;15.70;99.90;;;;;;5033717;28;20049;-27
2023/06/12 02:05:27;;;;;;;6.07;1.75;;;15.70;99.90;;;;;;5033344;28;20489;-28
2023/06/12 02:07:53;;;;;;;4.57;2.25;;;15.60;99.90;;;;;;5033061;28;20056;-27
2023/06/12 02:10:19;;;;;;;5.97;2.33;;;15.60;99.90;;;;;;5032703;28;20131;-27
2023/06/12 02:12:45;;;;;;;4.85;2.45;;;15.50;99.90;;;;;;5032384;28;20382;-28
2023/06/12 02:15:14;;;;;;;5.20;2.13;;;15.50;99.90;;;;;;5033286;28;20045;-27
2023/06/12 02:17:39;;;;;;;5.10;2.65;;;15.40;99.90;;;;;;5033893;28;20505;-28
2023/06/12 02:20:06;;;;;;;4.15;2.15;;;15.40;99.90;;;;;;5035526;28;20037;-27
2023/06/12 02:22:32;;;;;;;5.82;2.50;;;15.30;1.00;;;;;;5036411;28;20046;-26
2023/06/12 02:24:57;;;;;;;5.47;2.40;;;15.30;43.20;;;;;;5036484;28;20394;-27
2023/06/12 02:27:23;;;;;;;5.35;2.20;;;15.30;1.00;;;;;;5035265;28;20121;-27
2023/06/12 02:29:49;;;;;;;8.35;2.58;;;15.30;1.00;;;;;;5036933;28;20053;-27
2023/06/12 02:32:15;;;;;;;8.68;2.40;;;15.20;1.00;;;;;;5035425;28;20077;-27
2023/06/12 02:34:41;;;;;;;9.10;2.70;;;15.20;1.00;;;;;;5035850;28;20053;-27
2023/06/12 02:37:10;;;;;;;6.40;2.70;;;15.10;1.00;;;;;;5035070;28;20050;-27
2023/06/12 02:39:35;;;;;;;5.63;2.90;;;15.10;1.00;;;;;;5036203;28;20052;-28
2023/06/12 02:42:01;;;;;;;5.68;2.33;;;15.10;14.20;;;;;;5036165;28;20049;-27
2023/06/12 02:44:27;;;;;;;10.07;2.20;;;15.10;83.90;;;;;;5036169;28;20087;-27
2023/06/12 02:46:54;;;;;;;6.90;2.70;;;15.00;53.90;;;;;;5036348;28;20052;-27
2023/06/12 02:49:21;;;;;;;5.90;2.80;;;15.00;97.00;;;;;;5035716;28;20520;-27
2023/06/12 02:51:47;;;;;;;4.30;2.15;;;15.00;99.90;;;;;;5035878;28;20107;-27
2023/06/12 02:54:16;;;;;;;9.07;2.47;;;15.00;99.90;;;;;;5035928;28;20057;-28
2023/06/12 02:56:44;;;;;;;10.25;3.47;;;15.00;99.90;;;;;;5034749;28;20046;-27
2023/06/12 02:59:12;;;;;;;5.80;2.42;;;15.00;99.90;;;;;;5035547;28;20045;-27
2023/06/12 03:01:43;;;;;;;6.38;2.45;;;14.90;99.90;;;;;;5035422;28;20092;-27
2023/06/12 03:04:24;;;;;;;9.88;2.65;;;14.90;99.90;;;;;;5036411;28;20392;-28
2023/06/12 03:06:53;;;;;;;8.43;2.75;;;14.90;99.90;;;;;;5036330;28;20448;-27
2023/06/12 03:09:20;;;;;;;6.05;2.70;;;14.90;99.90;;;;;;5035723;28;20132;-27
2023/06/12 03:11:48;;;;;;;5.13;2.92;;;14.80;99.90;;;;;;5035665;28;20046;-26
2023/06/12 03:14:14;;;;;;;5.70;2.70;;;14.80;99.90;;;;;;5035864;28;20049;-26
2023/06/12 03:16:40;;;;;;;8.18;2.40;;;14.80;99.90;;;;;;5036370;28;20050;-27
2023/06/12 03:19:06;;;;;;;6.65;2.60;;;14.80;99.90;;;;;;5036265;28;20091;-27
2023/06/12 03:21:32;;;;;;;5.63;2.58;;;14.80;99.90;;;;;;5035357;28;20084;-27
2023/06/12 03:23:57;;;;;;;5.53;3.17;;;14.80;99.90;;;;;;5035335;28;20081;-27
2023/06/12 03:26:23;;;;;;;6.05;2.60;;;14.80;99.90;;;;;;5035892;28;20041;-27
2023/06/12 03:28:50;;;;;;;6.78;2.78;;;14.80;1.00;;;;;;5016527;28;20049;-27
2023/06/12 03:31:16;;;;;;;8.20;2.90;;;14.80;1.00;;;;;;5034078;28;20041;-27
2023/06/12 03:33:42;;;;;;;5.07;2.80;;;14.80;1.00;;;;;;5035209;28;20064;-28
2023/06/12 03:36:07;;;;;;;8.10;3.15;;;14.90;1.00;;;;;;5035290;28;20053;-28
2023/06/12 03:38:33;;;;;;;7.47;2.67;;;14.90;1.00;;;;;;5035425;28;20046;-27
2023/06/12 03:40:59;;;;;;;11.85;3.28;;;14.90;1.00;;;;;;5035575;28;20377;-27
2023/06/12 03:43:25;;;;;;;8.07;2.50;;;14.90;1.00;;;;;;5035330;28;20124;-27
2023/06/12 03:45:50;;;;;;;6.40;2.85;;;14.90;1.00;;;;;;5035297;28;20053;-27
2023/06/12 03:48:16;;;;;;;5.35;3.03;;;15.00;1.00;;;;;;5034017;28;20432;-27
2023/06/12 03:50:42;;;;;;;4.78;2.67;;;15.00;1.00;;;;;;5034618;28;20053;-27
2023/06/12 03:53:07;;;;;;;8.00;3.20;;;15.00;1.00;;;;;;5035671;28;20061;-27
2023/06/12 03:55:34;;;;;;;7.20;2.95;;;15.00;1.00;;;;;;5034841;28;20052;-27
2023/06/12 03:58:01;;;;;;;7.82;3.15;;;15.10;1.00;;;;;;5035022;28;20053;-27
2023/06/12 04:00:27;;;;;;;6.38;3.33;;;15.10;1.00;;;;;;5035190;28;20084;-27
2023/06/12 04:02:54;;;;;;;9.43;3.25;;;15.10;1.00;;;;;;5033190;28;20057;-27
2023/06/12 04:05:20;;;;;;;6.25;3.20;;;15.10;1.00;;;;;;5016913;28;20096;-27
2023/06/12 04:07:46;;;;;;;6.18;2.92;;;15.20;10.20;;;;;;5034648;28;20092;-27
2023/06/12 04:10:12;;;;;;;8.07;3.75;;;15.20;1.00;;;;;;5034515;28;20045;-27
2023/06/12 04:12:38;;;;;;;9.93;2.83;;;15.30;1.00;;;;;;5034469;28;20088;-28
2023/06/12 04:15:04;;;;;;;7.55;2.75;;;15.30;8.80;;;;;;5033510;28;20045;-27
2023/06/12 04:17:30;;;;;;;7.95;2.83;;;15.30;17.70;;;;;;5034046;28;20505;-28
2023/06/12 04:19:56;;;;;;;7.03;4.03;;;15.40;23.10;;;;;;5034115;28;20045;-27
2023/06/12 04:22:25;;;;;;;7.50;3.45;;;15.40;29.70;;;;;;5034654;28;20057;-27
2023/06/12 04:24:55;;;;;;;5.13;3.40;;;15.40;29.80;;;;;;5033244;28;20053;-27
2023/06/12 04:27:21;;;;;;;8.02;3.50;;;15.50;60.80;;;;;;5034799;28;20449;-27
2023/06/12 04:29:47;;;;;;;6.28;3.17;;;15.50;54.50;;;;;;5034213;28;20049;-27
2023/06/12 04:32:13;;;;;;;9.55;3.95;;;15.50;56.10;;;;;;5033796;28;20049;-27
2023/06/12 04:34:41;;;;;;;9.40;3.10;;;15.60;61.70;;;;;;5032816;28;20049;-27
2023/06/12 04:37:11;;;;;;;5.85;3.17;;;15.60;93.60;;;;;;5034608;28;20085;-27
2023/06/12 04:39:38;;;;;;;7.32;3.97;;;15.60;94.00;;;;;;5032676;28;20041;-27
2023/06/12 04:42:05;;;;;;;6.20;3.17;;;15.70;93.10;;;;;;5032956;28;20041;-28
2023/06/12 04:44:35;;;;;;;7.90;3.45;;;15.80;99.90;;;;;;5033728;28;20132;-27
2023/06/12 04:47:04;;;;;;;7.63;3.42;;;15.80;99.90;;;;;;5033216;28;20104;-27
2023/06/12 04:49:32;;;;;;;8.27;3.50;;;15.80;99.90;;;;;;5032647;28;20092;-28
2023/06/12 04:52:00;;;;;;;6.75;3.63;;;15.80;99.90;;;;;;5016534;28;20049;-27
2023/06/12 04:54:28;;;;;;;6.22;3.00;;;15.90;99.90;;;;;;5033364;28;20448;-27
2023/06/12 04:56:54;;;;;;;8.73;3.50;;;15.90;99.90;;;;;;5033948;28;20041;-27
2023/06/12 04:59:20;;;;;;;9.85;3.13;;;16.00;99.90;;;;;;5000334;28;20042;-27
2023/06/12 05:01:47;;;;;;;6.15;3.38;;;16.00;99.90;;;;;;5033541;28;20049;-27
2023/06/12 05:04:12;;;;;;;10.65;4.00;;;16.10;99.90;;;;;;5033536;28;20048;-27
2023/06/12 05:06:41;;;;;;;10.68;3.75;;;16.50;99.90;;;;;;5033530;28;20140;-26
2023/06/12 05:09:07;;;;;;;6.93;3.70;;;17.30;1.00;;;;;;5000956;28;20057;-27
2023/06/12 05:11:33;;;;;;;13.13;4.47;;;17.70;1.00;;;;;;5033539;28;20120;-27
2023/06/12 05:13:59;;;;;;;8.45;4.28;;;17.80;99.90;;;;;;5015884;28;20612;-27
2023/06/12 05:16:25;;;;;;;10.43;4.22;;;17.60;99.90;;;;;;5033378;28;20049;-27
2023/06/12 05:18:51;;;;;;;8.52;3.80;;;17.60;1.00;;;;;;5033458;28;20489;-27
2023/06/12 05:21:19;;;;;;;9.50;4.25;;;17.60;1.00;;;;;;5016609;28;20042;-27
2023/06/12 05:23:45;;;;;;;6.85;3.72;;;18.00;1.00;;;;;;5033234;28;20084;-27
2023/06/12 05:26:11;;;;;;;10.38;4.18;;;18.60;99.90;;;;;;5032065;28;20053;-27
2023/06/12 05:28:36;;;;;;;5.93;4.03;;;19.30;99.90;;;;;;5034132;28;20045;-27
2023/06/12 05:31:04;;;;;;;6.53;3.53;;;19.80;52.10;;;;;;5033290;28;20370;-27
2023/06/12 05:33:30;;;;;;;8.75;3.85;;;20.20;1.00;;;;;;5033511;28;20061;-27
2023/06/12 05:35:56;;;;;;;10.20;3.63;;;20.70;99.90;;;;;;5033271;28;20049;-27
2023/06/12 05:38:22;;;;;;;8.50;4.05;;;21.20;99.90;;;;;;5032364;28;20054;-27
2023/06/12 05:40:47;;;;;;;10.15;3.78;;;21.30;1.00;;;;;;5033274;28;20046;-28
2023/06/12 05:43:13;;;;;;;6.97;4.13;;;21.70;99.90;;;;;;5016756;28;20152;-27
2023/06/12 05:45:39;;;;;;;7.32;3.17;;;21.90;35.70;;;;;;5033284;28;20061;-28
2023/06/12 05:48:05;;;;;;;9.80;3.97;;;22.20;1.00;;;;;;5033253;28;20049;-27
2023/06/12 05:50:30;;;;;;;9.15;3.85;;;22.30;99.90;;;;;;5033780;28;20124;-28
2023/06/12 05:52:56;;;;;;;6.63;4.15;;;22.30;99.90;;;;;;5036329;28;20080;-27
2023/06/12 05:55:22;;;;;;;6.47;3.72;;;22.40;1.00;;;;;;5036702;28;20045;-27
2023/06/12 05:57:47;;;;;;;9.43;4.22;;;22.60;1.00;;;;;;5037565;28;20049;-29
2023/06/12 06:00:14;;;;;;;9.73;3.70;;;22.80;1.00;;;;;;5036927;28;20045;-27
2023/06/12 06:02:42;;;;;;;7.90;3.75;;;23.00;1.00;;;;;;5036996;28;20057;-27
2023/06/12 06:05:09;;;;;;;6.20;3.90;;;23.00;99.90;;;;;;5036861;28;20128;-27
2023/06/12 06:07:36;;;;;;;8.75;4.28;;;23.10;99.90;;;;;;5036755;28;20049;-27
2023/06/12 06:10:04;;;;;;;9.20;3.97;;;23.30;99.90;;;;;;5004112;28;20148;-27
2023/06/12 06:12:30;;;;;;;8.98;3.90;;;23.30;99.90;;;;;;5036785;28;20041;-28
2023/06/12 06:14:56;;;;;;;6.63;3.65;;;23.50;99.90;;;;;;5035732;28;20500;-27
2023/06/12 06:17:22;;;;;;;6.00;3.47;;;23.70;94.70;;;;;;5037193;28;20064;-27
2023/06/12 06:19:47;;;;;;;5.18;3.53;;;24.00;1.00;;;;;;5018916;28;20042;-27
2023/06/12 06:22:17;;;;;;;8.38;3.17;;;24.00;1.00;;;;;;5036423;28;20053;-28
2023/06/12 06:24:43;;;;;;;6.72;4.00;;;24.10;1.00;;;;;;5035272;28;20053;-28
2023/06/12 06:27:09;;;;;;;10.25;4.00;;;24.40;1.00;;;;;;5036709;28;20072;-27
2023/06/12 06:29:35;;;;;;;9.05;3.72;;;24.80;1.00;;;;;;5035471;28;20045;-28
2023/06/12 06:32:01;;;;;;;7.07;3.63;;;25.20;99.90;;;;;;5036396;28;20104;-27
2023/06/12 06:34:27;;;;;;;11.00;4.50;;;25.10;99.90;;;;;;5036225;28;20111;-27
2023/06/12 06:36:53;;;;;;;8.38;4.25;;;25.20;99.90;;;;;;5036267;28;20049;-27
2023/06/12 06:39:19;;;;;;;9.00;4.45;;;25.50;99.90;;;;;;5036273;28;20150;-28
2023/06/12 06:41:45;;;;;;;8.05;4.07;;;25.60;99.90;;;;;;5036162;28;20042;-27
2023/06/12 06:44:11;;;;;;;8.95;3.88;;;25.60;99.90;;;;;;5035007;28;20056;-27
2023/06/12 06:46:36;;;;;;;11.68;4.40;;;25.90;99.90;;;;;;5036625;28;20470;-27
2023/06/12 06:49:02;;;;;;;10.98;4.15;;;25.90;99.90;;;;;;5035099;28;20084;-27
2023/06/12 06:51:30;;;;;;;8.38;4.00;;;25.80;99.90;;;;;;5036550;28;20453;-27
2023/06/12 06:53:57;;;;;;;10.65;4.45;;;26.40;99.90;;;;;;5035672;28;20493;-27
2023/06/12 06:56:23;;;;;;;8.15;3.78;;;26.60;99.90;;;;;;5034652;28;20049;-27
2023/06/12 06:58:48;;;;;;;7.25;3.80;;;26.80;88.10;;;;;;5035878;28;20048;-27
2023/06/12 07:01:15;;;;;;;10.27;4.13;;;26.70;40.40;;;;;;5035749;28;20045;-27
2023/06/12 07:03:41;;;;;;;8.23;3.92;;;26.90;27.80;;;;;;5035589;28;20049;-28
2023/06/12 07:06:07;;;;;;;9.07;4.05;;;27.00;21.30;;;;;;5036186;28;20041;-28
2023/06/12 07:08:32;;;;;;;20.33;4.18;;;27.00;6.30;;;;;;5035675;28;20132;-27
2023/06/12 07:10:58;;;;;;;8.63;4.43;;;27.10;1.00;;;;;;5035651;28;20085;-27
2023/06/12 07:13:24;;;;;;;9.50;4.07;;;27.30;1.00;;;;;;5035618;28;20041;-28
2023/06/12 07:15:51;;;;;;;8.18;3.83;;;27.30;1.00;;;;;;5035256;28;20516;-28
2023/06/12 07:18:17;;;;;;;6.45;4.10;;;27.40;1.00;;;;;;5036134;28;20041;-27
2023/06/12 07:20:43;;;;;;;7.25;4.35;;;27.30;1.00;;;;;;5035441;28;20053;-27
2023/06/12 07:23:09;;;;;;;7.28;3.75;;;27.60;1.00;;;;;;5034218;28;20050;-28
2023/06/12 07:25:34;;;;;;;7.95;4.10;;;27.70;1.00;;;;;;5035404;28;20081;-27
2023/06/12 07:28:00;;;;;;;7.45;4.07;;;28.00;1.00;;;;;;5035303;28;20124;-27
2023/06/12 07:30:26;;;;;;;6.68;4.10;;;28.20;1.00;;;;;;5035235;28;20046;-28
2023/06/12 07:32:52;;;;;;;5.93;4.15;;;28.40;1.00;;;;;;5034985;28;20500;-27
2023/06/12 07:35:18;;;;;;;9.63;3.67;;;28.70;1.00;;;;;;5034986;28;20100;-32
2023/06/12 07:37:45;;;;;;;9.23;4.07;;;28.70;1.00;;;;;;5035642;28;20092;-27
2023/06/12 07:40:12;;;;;;;9.07;4.20;;;28.80;1.00;;;;;;5035534;28;20054;-27
2023/06/12 07:42:42;;;;;;;6.93;4.28;;;28.80;1.00;;;;;;5035229;28;20375;-27
2023/06/12 07:45:08;;;;;;;7.68;3.65;;;28.90;1.00;;;;;;5034994;28;20132;-28
2023/06/12 07:47:34;;;;;;;9.32;4.15;;;29.00;1.00;;;;;;5034239;28;20053;-28
2023/06/12 07:50:00;;;;;;;7.72;4.22;;;29.20;1.00;;;;;;5034873;28;20084;-28
2023/06/12 07:52:26;;;;;;;7.18;4.40;;;29.30;1.00;;;;;;5034906;28;20124;-27
2023/06/12 07:54:51;;;;;;;8.02;5.32;;;29.20;99.90;;;;;;5034882;28;20164;-27
2023/06/12 07:57:17;;;;;;;8.07;4.90;;;29.10;99.90;;;;;;5034727;28;20045;-28
2023/06/12 07:59:44;;;;;;;11.00;5.05;;;29.30;99.90;;;;;;5034655;28;20050;-28
2023/06/12 08:02:10;;;;;;;7.65;4.43;;;29.30;99.90;;;;;;5034607;28;20132;-27
2023/06/12 08:04:40;;;;;;;12.07;5.10;;;29.20;99.90;;;;;;5033668;28;20056;-27
2023/06/12 08:07:10;;;;;;;11.88;4.30;;;29.30;99.90;;;;;;5033350;28;20056;-29
2023/06/12 08:09:38;;;;;;;11.90;5.57;;;29.70;1.00;;;;;;5035166;28;20049;-28
2023/06/12 08:12:05;;;;;;;12.32;4.85;;;29.80;99.90;;;;;;5035040;28;20049;-27
2023/06/12 08:14:30;;;;;;;8.13;4.63;;;30.10;99.90;;;;;;5033786;28;20400;-28
2023/06/12 08:16:56;;;;;;;11.25;6.25;;;30.10;99.90;;;;;;5034214;28;20049;-28
2023/06/12 08:19:22;;;;;;;7.78;4.70;;;29.90;99.90;;;;;;5035123;28;20059;-28
2023/06/12 08:21:47;;;;;;;9.52;4.88;;;30.00;99.90;;;;;;5034245;28;20079;-28
2023/06/12 08:24:14;;;;;;;6.38;4.55;;;29.70;99.90;;;;;;5032993;28;20045;-28
2023/06/12 08:26:40;;;;;;;11.13;4.88;;;29.70;99.90;;;;;;5033267;28;20053;-29
2023/06/12 08:29:05;;;;;;;7.22;3.90;;;29.60;99.90;;;;;;5034250;28;20519;-29
2023/06/12 08:31:33;;;;;;;10.68;3.90;;;29.70;99.90;;;;;;5034993;28;20551;-27
2023/06/12 08:33:59;;;;;;;7.22;4.13;;;29.50;99.90;;;;;;5033706;28;20061;-29
2023/06/12 08:36:26;;;;;;;7.93;4.57;;;29.40;99.90;;;;;;5033956;28;20152;-28
2023/06/12 08:38:52;;;;;;;8.02;4.18;;;29.60;99.90;;;;;;5034030;28;20079;-27
2023/06/12 08:41:20;;;;;;;10.18;3.80;;;29.50;99.90;;;;;;5033935;28;20170;-28
2023/06/12 08:43:49;;;;;;;9.13;3.97;;;29.70;99.90;;;;;;5034018;28;20057;-27
2023/06/12 08:46:16;;;;;;;7.72;3.85;;;29.90;99.90;;;;;;5032787;28;20151;-28
2023/06/12 08:48:44;;;;;;;9.75;4.47;;;29.50;99.90;;;;;;5033900;28;20059;-28
2023/06/12 08:51:10;;;;;;;8.90;3.92;;;29.50;99.90;;;;;;5033872;28;20141;-28
2023/06/12 08:53:36;;;;;;;11.77;3.55;;;29.80;99.90;;;;;;5033824;28;20041;-28
2023/06/12 08:56:02;;;;;;;7.65;4.00;;;30.20;99.90;;;;;;5033704;28;20158;-28
2023/06/12 08:58:28;;;;;;;6.85;3.38;;;29.80;99.90;;;;;;5033737;28;20483;-29
2023/06/12 09:00:54;;;;;;;11.85;4.35;;;29.70;99.90;;;;;;5033645;28;20041;-28
2023/06/12 09:03:20;;;;;;;4.80;3.28;;;29.70;99.90;;;;;;5034293;28;20512;-29
2023/06/12 09:05:47;;;;;;;7.95;4.07;;;30.30;99.90;;;;;;5033870;28;20085;-28
2023/06/12 09:08:13;;;;;;;6.32;3.60;;;30.60;99.90;;;;;;5032393;28;20480;-28
2023/06/12 09:10:39;;;;;;;6.10;3.50;;;30.70;99.90;;;;;;5032454;28;20053;-28
2023/06/12 09:13:09;;;;;;;6.95;3.63;;;30.90;99.90;;;;;;5033888;28;20095;-27
2023/06/12 09:15:37;;;;;;;6.00;3.10;;;30.90;99.90;;;;;;5033606;28;20045;-28
2023/06/12 09:18:07;;;;;;;4.32;2.83;;;30.90;99.90;;;;;;5033568;28;20159;-28
2023/06/12 09:20:33;;;;;;;3.85;3.03;;;30.80;99.90;;;;;;5033561;28;20131;-28
2023/06/12 09:23:06;;;;;;;6.13;3.50;;;31.00;99.90;;;;;;5033421;28;20053;-28
2023/06/12 09:25:42;;;;;;;7.82;3.58;;;31.30;99.90;;;;;;5016517;28;20515;-28
2023/06/12 09:28:09;;;;;;;6.32;3.08;;;31.70;99.90;;;;;;5035561;28;20050;-28
2023/06/12 09:30:39;;;;;;;6.93;3.75;;;31.60;99.90;;;;;;5037522;28;20183;-28
2023/06/12 09:33:06;;;;;;;6.57;3.35;;;31.60;99.90;;;;;;5037537;28;20057;-27
2023/06/12 09:35:32;;;;;;;4.80;3.17;;;31.70;99.90;;;;;;5037781;28;20064;-28
2023/06/12 09:37:58;;;;;;;4.90;3.30;;;31.70;99.90;;;;;;5035914;28;20140;-28
2023/06/12 09:40:24;;;;;;;6.25;3.28;;;32.00;99.90;;;;;;5037253;28;20068;-28
2023/06/12 09:42:50;;;;;;;6.00;3.13;;;32.20;99.90;;;;;;5036065;28;20509;-28
2023/06/12 09:45:24;;;;;;;5.80;3.78;;;32.50;99.90;;;;;;5036061;28;20173;-29
2023/06/12 09:47:53;;;;;;;3.58;3.03;;;32.30;99.90;;;;;;5036665;28;20064;-28
2023/06/12 09:50:21;;;;;;;4.70;3.25;;;32.50;99.90;;;;;;5037118;28;20092;-29
2023/06/12 09:52:48;;;;;;;6.30;3.75;;;32.80;99.90;;;;;;5035915;28;20095;-29
2023/06/12 09:55:18;;;;;;;7.57;3.95;;;32.60;99.90;;;;;;5037105;28;20050;-30
2023/06/12 09:57:49;;;;;;;5.28;3.35;;;32.90;99.90;;;;;;5037652;28;20053;-28
2023/06/12 10:00:16;;;;;;;6.80;4.05;;;32.80;99.90;;;;;;5037224;28;20491;-27
2023/06/12 10:03:06;;;;;;;6.80;3.55;;;32.80;99.90;;;;;;5036670;28;20501;-29
2023/06/12 10:05:40;;;;;;;9.63;3.78;;;32.90;99.90;;;;;;5035920;28;20397;-28
2023/06/12 10:08:07;;;;;;;11.85;3.92;;;32.80;99.90;;;;;;5035937;28;20042;-28
2023/06/12 10:10:36;;;;;;;8.02;4.05;;;32.90;99.90;;;;;;5035945;28;20108;-28
2023/06/12 10:13:03;;;;;;;5.10;3.63;;;33.00;99.90;;;;;;5036751;28;20051;-28
2023/06/12 10:15:34;;;;;;;7.18;3.60;;;33.30;99.90;;;;;;5036755;28;20041;-28
2023/06/12 10:18:01;;;;;;;7.25;3.30;;;33.30;99.90;;;;;;5036778;28;20053;-28
2023/06/12 10:20:30;;;;;;;8.68;3.60;;;33.50;99.90;;;;;;5036475;28;20508;-28
2023/06/12 10:22:56;;;;;;;7.93;4.13;;;33.50;99.90;;;;;;5036454;28;20046;-28
2023/06/12 10:25:23;;;;;;;5.60;3.58;;;33.30;99.90;;;;;;5036513;28;20085;-28
2023/06/12 10:27:49;;;;;;;8.95;3.78;;;33.40;99.90;;;;;;5037010;28;20041;-29
2023/06/12 10:30:18;;;;;;;5.07;3.50;;;33.30;99.90;;;;;;5036425;28;20053;-28
2023/06/12 10:32:46;;;;;;;5.13;3.55;;;33.60;99.90;;;;;;5035190;28;20045;-28
2023/06/12 10:35:13;;;;;;;10.05;3.88;;;33.70;99.90;;;;;;5036228;28;20147;-28
2023/06/12 10:37:42;;;;;;;7.32;4.20;;;33.90;99.90;;;;;;5035703;28;20493;-28
2023/06/12 10:40:15;;;;;;;7.70;3.97;;;34.00;99.90;;;;;;5037017;28;20128;-29
2023/06/12 10:42:43;;;;;;;6.43;3.55;;;34.20;99.90;;;;;;5035615;28;20068;-28
2023/06/12 10:45:17;;;;;;;10.25;3.25;;;34.50;99.90;;;;;;5036079;28;20544;-29
2023/06/12 10:48:07;;;;;;;4.53;3.70;;;34.70;99.90;;;;;;5036371;28;20068;-28
2023/06/12 10:50:32;;;;;;;8.05;3.63;;;34.80;99.90;;;;;;5036304;28;20389;-28
2023/06/12 10:53:03;;;;;;;7.97;3.58;;;34.70;99.90;;;;;;5036035;28;20045;-29
2023/06/12 10:55:33;;;;;;;7.27;3.63;;;34.80;99.90;;;;;;5036003;28;20049;-28
2023/06/12 10:58:00;;;;;;;5.75;3.25;;;34.60;99.90;;;;;;5035620;28;20767;-29
2023/06/12 11:00:48;;;;;;;9.05;3.38;;;34.60;99.90;;;;;;5035839;28;20042;-28
2023/06/12 11:03:33;;;;;;;6.07;3.80;;;35.00;99.90;;;;;;5035916;28;20049;-29
2023/06/12 11:06:15;;;;;;;6.18;3.33;;;34.80;99.90;;;;;;5020414;28;20180;-29
2023/06/12 11:08:41;;;;;;;;;;;34.60;99.90;;;;;;5036284;28;20045;-30
2023/06/12 11:11:08;;;;;;;9.23;3.50;;;33.90;99.90;;;;;;5035614;28;19921;-29
2023/06/12 11:13:38;;;;;;;5.70;3.40;;;34.50;99.90;;;;;;5035674;28;20049;-28
2023/06/12 11:16:04;;;;;;;9.05;3.80;;;34.80;99.90;;;;;;5035577;28;20081;-29
2023/06/12 11:18:29;;;;;;;5.93;3.67;;;35.00;99.90;;;;;;5034335;28;20538;-29
2023/06/12 11:20:56;;;;;;;8.27;3.60;;;35.20;99.90;;;;;;5034418;28;20048;-29
2023/06/12 11:23:27;;;;;;;7.63;3.70;;;35.50;99.90;;;;;;5035318;28;20053;-28
2023/06/12 11:25:54;;;;;;;5.68;3.38;;;35.70;99.90;;;;;;5035326;28;20053;-28
2023/06/12 11:28:23;;;;;;;6.78;3.80;;;35.90;99.90;;;;;;5035365;28;20139;-28
2023/06/12 11:30:53;;;;;;;7.55;4.03;;;36.00;99.90;;;;;;5035354;28;20045;-30
2023/06/12 11:33:20;;;;;;;8.85;4.05;;;36.20;99.90;;;;;;5035830;28;20045;-28
2023/06/12 11:35:48;;;;;;;6.03;3.72;;;36.10;99.90;;;;;;5035251;28;20576;-28
2023/06/12 11:38:16;;;;;;;4.25;3.55;;;36.20;99.90;;;;;;5035673;28;20049;-29
2023/06/12 11:40:43;;;;;;;5.38;3.90;;;36.30;99.90;;;;;;5035584;28;20046;-29
2023/06/12 11:43:09;;;;;;;6.15;3.92;;;36.50;99.90;;;;;;5035090;28;20045;-29
2023/06/12 11:45:41;;;;;;;5.80;4.18;;;36.60;99.90;;;;;;5034980;28;20136;-28
2023/06/12 11:48:13;;;;;;;5.75;4.20;;;36.40;99.90;;;;;;5018052;28;20375;-28
2023/06/12 11:50:39;;;;;;;5.40;3.65;;;36.20;99.90;;;;;;5034036;28;20129;-29
2023/06/12 11:53:05;;;;;;;5.45;4.07;;;36.30;99.90;;;;;;5033836;28;20050;-28
2023/06/12 11:55:32;;;;;;;6.05;3.40;;;36.00;99.90;;;;;;5034844;28;20041;-28
2023/06/12 11:58:04;;;;;;;4.88;3.92;;;36.30;99.90;;;;;;5034118;28;20351;-29
2023/06/12 12:00:32;;;;;;;9.43;4.10;;;36.50;99.90;;;;;;5033565;28;20041;-28
2023/06/12 12:03:01;;;;;;;5.47;4.40;;;36.60;99.90;;;;;;5034626;28;20049;-28
2023/06/12 12:05:31;;;;;;;4.38;3.97;;;36.60;99.90;;;;;;5034580;28;20046;-28
2023/06/12 12:07:59;;;;;;;9.90;3.90;;;36.60;99.90;;;;;;5035118;28;20050;-28
2023/06/12 12:10:30;;;;;;;6.13;4.15;;;36.00;99.90;;;;;;5034517;28;20091;-28
2023/06/12 12:12:59;;;;;;;4.40;3.67;;;36.20;99.90;;;;;;5033791;28;20042;-28
2023/06/12 12:15:27;;;;;;;6.93;4.45;;;36.00;99.90;;;;;;5034974;28;20057;-28
2023/06/12 12:17:53;;;;;;;7.32;3.70;;;36.20;99.90;;;;;;5034399;28;20485;-30
2023/06/12 12:20:21;;;;;;;4.80;4.40;;;36.60;99.90;;;;;;5033163;28;20052;-29
2023/06/12 12:22:49;;;;;;;6.43;4.38;;;37.10;99.90;;;;;;5034187;28;20050;-29
2023/06/12 12:25:18;;;;;;;4.72;4.28;;;37.10;99.90;;;;;;5033038;28;20111;-28
2023/06/12 12:27:45;;;;;;;5.93;3.78;;;37.30;99.90;;;;;;5033035;28;20041;-28
2023/06/12 12:30:14;;;;;;;6.32;4.32;;;37.10;99.90;;;;;;5034187;28;20052;-28
2023/06/12 12:32:41;;;;;;;4.90;4.20;;;36.80;99.90;;;;;;5033687;28;20441;-29
2023/06/12 12:35:08;;;;;;;4.57;4.18;;;36.70;99.90;;;;;;5016477;28;20058;-29
2023/06/12 12:37:34;;;;;;;9.50;4.80;;;36.70;99.90;;;;;;5034096;28;20128;-30
2023/06/12 12:40:01;;;;;;;7.40;4.50;;;36.70;99.90;;;;;;5034806;28;20127;-29
2023/06/12 12:42:27;;;;;;;5.53;4.68;;;35.90;99.90;;;;;;5017001;28;20045;-29
2023/06/12 12:44:53;;;;;;;6.80;4.20;;;36.10;99.90;;;;;;5033950;28;20048;-29
2023/06/12 12:47:18;;;;;;;6.15;4.70;;;36.10;99.90;;;;;;5033593;28;20493;-28
2023/06/12 12:49:44;;;;;;;9.52;4.30;;;36.40;99.90;;;;;;5032659;28;20049;-28